createdAt,value
2019-02-28T00:01:37.553Z,38.67
2019-02-28T00:04:07.207Z,40.10
2019-02-28T00:06:36.897Z,38.90
2019-02-28T00:09:08.507Z,40.37
2019-02-28T00:11:39.432Z,38.53
2019-02-28T00:14:09.549Z,40.00
2019-02-28T00:16:39.308Z,38.37
2019-02-28T00:19:08.953Z,39.30
2019-02-28T00:21:40.606Z,40.63
2019-02-28T00:24:10.032Z,41.20
2019-02-28T00:26:39.877Z,39.97
2019-02-28T00:29:09.585Z,41.10
2019-02-28T00:31:39.217Z,41.10
2019-02-28T00:34:08.895Z,42.13
2019-02-28T00:36:38.532Z,40.20
2019-02-28T00:39:08.192Z,42.03
2019-02-28T00:41:42.964Z,41.17
2019-02-28T00:44:11.231Z,40.73
2019-02-28T00:46:43.846Z,40.93
2019-02-28T00:49:12.440Z,42.23
2019-02-28T00:51:42.139Z,43.07
2019-02-28T00:54:11.838Z,42.57
2019-02-28T00:56:41.476Z,42.93
2019-02-28T00:59:11.157Z,41.80
2019-02-28T01:01:43.103Z,40.93
2019-02-28T01:04:12.177Z,42.97
2019-02-28T01:06:41.942Z,42.17
2019-02-28T01:09:12.369Z,41.40
2019-02-28T01:11:44.893Z,43.50
2019-02-28T01:14:13.437Z,43.93
2019-02-28T01:16:43.098Z,44.00
2019-02-28T01:19:12.897Z,42.23
2019-02-28T01:21:42.498Z,44.60
2019-02-28T01:24:12.210Z,44.07
2019-02-28T01:26:43.374Z,42.40
2019-02-28T01:29:15.174Z,43.53
2019-02-28T01:31:44.839Z,44.00
2019-02-28T01:34:14.658Z,41.37
2019-02-28T01:36:45.923Z,45.57
2019-02-28T01:39:15.886Z,44.37
2019-02-28T01:41:45.910Z,46.87
2019-02-28T01:44:15.680Z,46.43
2019-02-28T01:46:48.517Z,44.03
2019-02-28T01:49:16.779Z,43.33
2019-02-28T01:51:46.438Z,45.50
2019-02-28T01:54:16.120Z,45.70
2019-02-28T01:56:45.781Z,47.20
2019-02-28T01:59:15.617Z,46.43
2019-02-28T02:01:45.379Z,46.40
2019-02-28T02:04:15.046Z,44.93
2019-02-28T02:06:44.693Z,46.30
2019-02-28T02:09:14.814Z,45.83
2019-02-28T02:11:44.472Z,45.90
2019-02-28T02:14:14.233Z,46.57
2019-02-28T02:16:43.969Z,47.17
2019-02-28T02:19:17.588Z,48.20
2019-02-28T02:21:45.159Z,47.17
2019-02-28T02:24:15.217Z,48.57
2019-02-28T02:26:45.836Z,46.80
2019-02-28T02:29:15.657Z,48.00
2019-02-28T02:31:45.333Z,47.17
2019-02-28T02:34:15.018Z,49.00
2019-02-28T02:36:44.771Z,49.47
2019-02-28T02:39:17.601Z,48.37
2019-02-28T02:41:46.069Z,49.73
2019-02-28T02:44:15.748Z,51.80
2019-02-28T02:46:45.465Z,49.33
2019-02-28T02:49:19.790Z,49.57
2019-02-28T02:51:50.528Z,51.23
2019-02-28T02:54:20.209Z,51.43
2019-02-28T02:56:50.132Z,50.17
2019-02-28T02:59:19.941Z,50.53
2019-02-28T03:01:49.735Z,51.80
2019-02-28T03:04:23.100Z,50.50
2019-02-28T03:06:50.810Z,52.60
2019-02-28T03:09:20.450Z,53.20
2019-02-28T03:11:50.544Z,53.80
2019-02-28T03:14:20.724Z,52.27
2019-02-28T03:16:50.593Z,53.43
2019-02-28T03:19:20.338Z,51.97
2019-02-28T03:21:52.583Z,53.03
2019-02-28T03:24:22.094Z,53.33
2019-02-28T03:26:51.882Z,55.23
2019-02-28T03:29:21.617Z,56.57
2019-02-28T03:31:56.483Z,56.53
2019-02-28T03:34:22.690Z,57.73
2019-02-28T03:36:57.099Z,58.30
2019-02-28T03:39:24.594Z,57.33
2019-02-28T03:41:55.462Z,56.83
2019-02-28T03:44:25.116Z,58.87
2019-02-28T03:46:55.633Z,58.97
2019-02-28T03:49:25.374Z,60.90
2019-02-28T03:51:55.083Z,62.37
2019-02-28T03:54:28.808Z,60.77
2019-02-28T03:56:56.147Z,62.67
2019-02-28T03:59:25.826Z,61.03
2019-02-28T04:01:55.503Z,65.27
2019-02-28T04:04:25.254Z,64.47
2019-02-28T04:06:54.931Z,62.60
2019-02-28T04:09:24.578Z,60.00
2019-02-28T04:11:54.274Z,62.57
2019-02-28T04:14:23.971Z,62.63
2019-02-28T04:16:54.559Z,61.27
2019-02-28T04:19:24.309Z,66.73
2019-02-28T04:21:53.999Z,61.03
2019-02-28T04:24:23.680Z,64.63
2019-02-28T04:26:53.628Z,64.37
2019-02-28T04:29:30.002Z,68.13
2019-02-28T04:31:54.708Z,64.37
2019-02-28T04:34:24.409Z,63.23
2019-02-28T04:36:54.067Z,68.70
2019-02-28T04:39:23.767Z,67.27
2019-02-28T04:41:53.425Z,65.97
2019-02-28T04:44:23.144Z,65.90
2019-02-28T04:46:52.830Z,65.53
2019-02-28T04:49:22.836Z,65.40
2019-02-28T04:51:52.806Z,69.67
2019-02-28T04:54:24.508Z,67.10
2019-02-28T04:56:54.063Z,70.00
2019-02-28T04:59:23.825Z,68.97
2019-02-28T05:01:53.482Z,67.40
2019-02-28T05:04:23.232Z,68.33
2019-02-28T05:06:55.268Z,69.43
2019-02-28T05:09:24.420Z,70.60
2019-02-28T05:11:54.066Z,68.43
2019-02-28T05:14:24.423Z,69.53
2019-02-28T05:16:54.069Z,68.47
2019-02-28T05:19:23.833Z,64.50
2019-02-28T05:21:54.353Z,70.73
2019-02-28T05:24:24.230Z,68.93
2019-02-28T05:26:53.881Z,72.23
2019-02-28T05:29:23.578Z,74.50
2019-02-28T05:31:53.227Z,70.13
2019-02-28T05:34:22.960Z,68.90
2019-02-28T05:36:52.657Z,69.23
2019-02-28T05:39:22.366Z,75.03
2019-02-28T05:41:52.024Z,71.40
2019-02-28T05:44:21.833Z,71.03
2019-02-28T05:46:51.550Z,71.93
2019-02-28T05:49:21.223Z,69.83
2019-02-28T05:51:51.190Z,67.17
2019-02-28T05:54:20.918Z,65.00
2019-02-28T05:56:50.640Z,67.23
2019-02-28T05:59:26.220Z,65.37
2019-02-28T06:01:51.908Z,63.33
2019-02-28T06:04:21.624Z,66.57
2019-02-28T06:06:54.628Z,66.33
2019-02-28T06:09:22.724Z,64.47
2019-02-28T06:11:52.518Z,61.00
2019-02-28T06:14:26.494Z,64.30
2019-02-28T06:16:53.640Z,63.03
2019-02-28T06:19:23.386Z,60.07
2019-02-28T06:21:53.092Z,59.90
2019-02-28T06:24:22.727Z,58.83
2019-02-28T06:26:52.483Z,58.43
2019-02-28T06:29:22.138Z,58.93
2019-02-28T06:31:51.832Z,57.77
2019-02-28T06:34:21.602Z,56.27
2019-02-28T06:36:51.268Z,55.90
2019-02-28T06:39:20.965Z,55.30
2019-02-28T06:41:57.156Z,54.90
2019-02-28T06:44:27.667Z,56.77
2019-02-28T06:47:03.319Z,55.50
2019-02-28T06:49:32.940Z,56.07
2019-02-28T06:52:03.709Z,55.07
2019-02-28T06:54:33.399Z,53.93
2019-02-28T06:57:03.066Z,51.10
2019-02-28T06:59:32.835Z,50.37
2019-02-28T07:02:02.543Z,48.83
2019-02-28T07:04:32.220Z,46.77
2019-02-28T07:07:01.878Z,44.63
2019-02-28T07:09:33.599Z,48.17
2019-02-28T07:12:02.992Z,45.17
2019-02-28T07:14:32.659Z,41.17
2019-02-28T07:17:02.422Z,40.70
2019-02-28T07:19:32.053Z,40.03
2019-02-28T07:22:01.775Z,39.03
2019-02-28T07:24:37.266Z,39.07
2019-02-28T07:27:04.270Z,37.80
2019-02-28T07:29:34.053Z,34.30
2019-02-28T07:32:03.780Z,34.70
2019-02-28T07:34:33.435Z,32.70
2019-02-28T07:37:03.266Z,30.40
2019-02-28T07:39:32.976Z,29.73
2019-02-28T07:42:03.055Z,30.53
2019-02-28T07:44:32.714Z,28.03
2019-02-28T07:47:02.479Z,30.13
2019-02-28T07:49:35.856Z,29.63
2019-02-28T07:52:03.656Z,26.30
2019-02-28T07:54:51.814Z,24.27
2019-02-28T07:57:19.076Z,23.70
2019-02-28T07:59:48.761Z,24.93
2019-02-28T08:02:18.433Z,22.67
2019-02-28T08:04:50.784Z,23.97
2019-02-28T08:07:19.669Z,24.03
2019-02-28T08:09:49.315Z,22.57
2019-02-28T08:12:19.206Z,22.47
2019-02-28T08:14:48.996Z,20.53
2019-02-28T08:17:18.707Z,20.67
2019-02-28T08:19:48.509Z,20.47
2019-02-28T08:22:23.222Z,19.23
2019-02-28T08:24:49.820Z,19.00
2019-02-28T08:27:20.038Z,20.77
2019-02-28T08:29:49.764Z,19.50
2019-02-28T08:32:19.589Z,20.23
2019-02-28T08:34:49.267Z,17.93
2019-02-28T08:37:20.109Z,18.37
2019-02-28T08:39:50.464Z,18.27
2019-02-28T08:42:20.311Z,18.47
2019-02-28T08:44:50.039Z,19.53
2019-02-28T08:47:21.049Z,17.97
2019-02-28T08:49:51.393Z,19.80
2019-02-28T08:52:21.220Z,18.30
2019-02-28T08:54:51.173Z,17.17
2019-02-28T08:57:21.944Z,18.07
2019-02-28T08:59:56.385Z,18.53
2019-02-28T09:02:24.396Z,19.03
2019-02-28T09:04:54.064Z,19.20
2019-02-28T09:07:24.211Z,17.63
2019-02-28T09:09:54.346Z,16.87
2019-02-28T09:12:24.244Z,17.57
2019-02-28T09:14:55.231Z,17.30
2019-02-28T09:17:26.737Z,17.73
2019-02-28T09:19:56.784Z,18.77
2019-02-28T09:22:27.472Z,18.50
2019-02-28T09:24:57.928Z,17.33
2019-02-28T09:27:27.796Z,17.67
2019-02-28T09:29:57.627Z,19.23
2019-02-28T09:32:27.444Z,17.43
2019-02-28T09:34:57.108Z,17.63
2019-02-28T09:37:33.129Z,17.63
2019-02-28T09:40:02.887Z,18.10
2019-02-28T09:42:32.660Z,16.93
2019-02-28T09:45:06.790Z,20.40
2019-02-28T09:47:34.096Z,18.73
2019-02-28T09:50:05.001Z,17.93
2019-02-28T09:52:34.969Z,17.70
2019-02-28T09:55:05.932Z,17.73
2019-02-28T09:57:38.957Z,18.20
2019-02-28T10:00:12.708Z,17.53
2019-02-28T10:02:43.925Z,19.67
2019-02-28T10:05:14.593Z,18.00
2019-02-28T10:07:50.689Z,18.50
2019-02-28T10:10:25.841Z,17.77
2019-02-28T10:12:56.815Z,17.23
2019-02-28T10:15:27.134Z,19.50
2019-02-28T10:17:56.845Z,17.33
2019-02-28T10:20:35.657Z,17.37
2019-02-28T10:23:05.561Z,18.43
2019-02-28T10:25:40.054Z,17.27
2019-02-28T10:28:07.224Z,17.90
2019-02-28T10:30:37.382Z,16.53
2019-02-28T10:33:07.115Z,16.53
2019-02-28T10:35:37.735Z,17.03
2019-02-28T10:38:07.470Z,16.73
2019-02-28T10:40:37.193Z,17.47
2019-02-28T10:43:06.837Z,18.30
2019-02-28T10:45:41.281Z,17.27
2019-02-28T10:48:08.443Z,15.60
2019-02-28T10:50:39.135Z,16.90
2019-02-28T10:53:09.236Z,15.50
2019-02-28T10:55:39.363Z,15.73
2019-02-28T10:58:09.113Z,14.47
2019-02-28T11:00:41.934Z,16.00
2019-02-28T11:03:11.793Z,15.93
2019-02-28T11:05:44.020Z,14.90
2019-02-28T11:08:18.928Z,15.43
2019-02-28T11:10:47.932Z,13.37
2019-02-28T11:13:21.231Z,15.07
2019-02-28T11:15:51.468Z,15.50
2019-02-28T11:18:21.280Z,13.90
2019-02-28T11:20:51.030Z,16.03
2019-02-28T11:23:22.376Z,15.97
2019-02-28T11:25:54.893Z,15.83
2019-02-28T11:28:27.910Z,13.73
2019-02-28T11:30:56.482Z,13.60
2019-02-28T11:33:26.488Z,12.37
2019-02-28T11:35:59.023Z,12.37
2019-02-28T11:38:28.512Z,14.37
2019-02-28T11:40:58.363Z,13.33
2019-02-28T11:43:28.197Z,13.13
2019-02-28T11:46:01.076Z,11.87
2019-02-28T11:48:29.317Z,12.33
2019-02-28T11:51:01.919Z,11.47
2019-02-28T11:53:31.665Z,12.07
2019-02-28T11:56:01.302Z,11.17
2019-02-28T11:58:30.959Z,11.50
2019-02-28T12:01:02.262Z,10.83
2019-02-28T12:03:35.426Z,10.83
2019-02-28T12:06:03.423Z,9.43
2019-02-28T12:08:33.113Z,10.73
2019-02-28T12:11:02.938Z,11.50
2019-02-28T12:13:32.657Z,10.07
2019-02-28T12:16:02.491Z,9.43
2019-02-28T12:18:32.250Z,8.17
2019-02-28T12:21:04.189Z,8.23
2019-02-28T12:23:33.370Z,8.40
2019-02-28T12:26:09.968Z,7.53
2019-02-28T12:28:39.638Z,8.27
2019-02-28T12:31:09.485Z,7.93
2019-02-28T12:33:39.163Z,8.37
2019-02-28T12:36:11.286Z,6.87
2019-02-28T12:38:40.196Z,7.67
2019-02-28T12:41:09.919Z,7.90
2019-02-28T12:43:40.551Z,8.17
2019-02-28T12:46:11.222Z,8.37
2019-02-28T12:48:40.881Z,8.83
2019-02-28T12:51:10.531Z,7.40
2019-02-28T12:53:40.198Z,7.40
2019-02-28T12:56:14.265Z,6.10
2019-02-28T12:58:44.227Z,9.00
2019-02-28T13:01:13.884Z,9.50
2019-02-28T13:03:43.582Z,8.73
2019-02-28T13:06:13.212Z,9.13
2019-02-28T13:08:42.944Z,7.60
2019-02-28T13:11:12.592Z,6.57
2019-02-28T13:13:42.332Z,6.40
2019-02-28T13:16:13.597Z,5.47
2019-02-28T13:18:44.421Z,5.47
2019-02-28T13:21:14.030Z,5.43
2019-02-28T13:23:43.735Z,6.60
2019-02-28T13:26:13.420Z,5.30
2019-02-28T13:28:43.389Z,4.87
2019-02-28T13:31:13.126Z,4.47
2019-02-28T13:33:42.825Z,4.50
2019-02-28T13:36:13.030Z,4.20
2019-02-28T13:38:42.724Z,4.23
2019-02-28T13:41:14.995Z,3.70
2019-02-28T13:43:43.737Z,3.33
2019-02-28T13:46:13.558Z,4.00
2019-02-28T13:48:43.248Z,4.20
2019-02-28T13:51:13.007Z,4.10
2019-02-28T13:53:42.679Z,3.50
2019-02-28T13:56:12.438Z,4.70
2019-02-28T13:58:42.310Z,3.83
2019-02-28T14:01:12.049Z,4.13
2019-02-28T14:03:42.318Z,3.80
2019-02-28T14:06:18.911Z,3.93
2019-02-28T14:08:45.999Z,3.97
2019-02-28T14:11:16.049Z,4.03
2019-02-28T14:13:45.781Z,4.03
2019-02-28T14:16:15.512Z,3.83
2019-02-28T14:18:45.436Z,3.80
2019-02-28T14:21:16.201Z,3.87
2019-02-28T14:23:45.963Z,3.30
2019-02-28T14:26:15.685Z,4.43
2019-02-28T14:28:45.305Z,4.13
2019-02-28T14:31:14.967Z,4.07
2019-02-28T14:33:44.829Z,4.17
2019-02-28T14:36:14.894Z,3.03
2019-02-28T14:38:44.554Z,3.80
2019-02-28T14:41:14.234Z,3.20
2019-02-28T14:43:43.897Z,3.87
2019-02-28T14:46:15.138Z,4.10
2019-02-28T14:48:44.921Z,3.70
2019-02-28T14:51:14.642Z,3.53
2019-02-28T14:53:45.479Z,4.00
2019-02-28T14:56:15.736Z,4.00
2019-02-28T14:58:45.408Z,3.90
2019-02-28T15:01:17.994Z,2.80
2019-02-28T15:03:46.837Z,3.63
2019-02-28T15:06:16.490Z,3.80
2019-02-28T15:08:47.419Z,3.30
2019-02-28T15:11:17.660Z,3.53
2019-02-28T15:13:47.338Z,3.90
2019-02-28T15:16:17.036Z,3.70
2019-02-28T15:18:47.694Z,4.20
2019-02-28T15:21:18.159Z,3.83
2019-02-28T15:23:47.831Z,5.00
2019-02-28T15:26:17.491Z,3.53
2019-02-28T15:28:48.567Z,4.10
2019-02-28T15:31:20.913Z,3.67
2019-02-28T15:33:50.591Z,3.87
2019-02-28T15:36:20.866Z,3.30
2019-02-28T15:38:51.876Z,3.93
2019-02-28T15:41:21.553Z,4.30
2019-02-28T15:43:53.726Z,4.00
2019-02-28T15:46:22.636Z,3.30
2019-02-28T15:48:52.286Z,3.77
2019-02-28T15:51:22.083Z,3.97
2019-02-28T15:53:51.779Z,4.40
2019-02-28T15:56:21.419Z,4.43
2019-02-28T15:58:51.166Z,3.57
2019-02-28T16:01:20.855Z,5.00
2019-02-28T16:03:51.308Z,4.27
2019-02-28T16:06:22.144Z,5.73
2019-02-28T16:08:51.790Z,5.17
2019-02-28T16:11:21.427Z,4.60
2019-02-28T16:13:51.226Z,3.83
2019-02-28T16:16:21.524Z,3.97
2019-02-28T16:18:52.361Z,4.37
2019-02-28T16:21:22.005Z,3.53
2019-02-28T16:23:51.723Z,4.00
2019-02-28T16:26:30.452Z,4.57
2019-02-28T16:29:00.291Z,3.83
2019-02-28T16:31:30.025Z,3.30
2019-02-28T16:34:08.016Z,3.70
2019-02-28T16:36:31.042Z,4.53
2019-02-28T16:39:00.696Z,3.00
2019-02-28T16:41:30.443Z,3.70
2019-02-28T16:44:00.110Z,3.57
2019-02-28T16:46:30.264Z,3.20
2019-02-28T16:48:59.879Z,3.93
2019-02-28T16:51:30.266Z,3.97
2019-02-28T16:53:59.902Z,4.53
2019-02-28T16:56:29.541Z,4.17
2019-02-28T16:59:00.698Z,4.53
2019-02-28T17:01:30.422Z,4.53
2019-02-28T17:04:00.419Z,3.80
2019-02-28T17:06:32.584Z,4.03
2019-02-28T17:09:03.058Z,4.00
2019-02-28T17:11:33.361Z,4.80
2019-02-28T17:14:04.792Z,3.80
2019-02-28T17:16:37.010Z,4.00
2019-02-28T17:19:08.582Z,4.37
2019-02-28T17:21:38.409Z,4.67
2019-02-28T17:24:08.717Z,4.20
2019-02-28T17:26:49.936Z,4.13
2019-02-28T17:29:25.176Z,4.63
2019-02-28T17:31:55.016Z,4.27
2019-02-28T17:34:25.282Z,4.45
2019-02-28T17:36:55.097Z,5.33
2019-02-28T17:39:24.895Z,5.33
2019-02-28T17:41:54.588Z,10.23
2019-02-28T17:44:27.392Z,4.80
2019-02-28T17:47:00.582Z,4.97
2019-02-28T17:49:40.198Z,4.23
2019-02-28T17:52:15.660Z,4.13
2019-02-28T17:54:54.316Z,4.73
2019-02-28T17:57:35.787Z,4.13
2019-02-28T18:00:16.151Z,4.70
2019-02-28T18:03:06.541Z,4.60
2019-02-28T18:05:50.146Z,3.80
2019-02-28T18:08:22.705Z,4.80
2019-02-28T18:11:30.877Z,4.23
2019-02-28T18:14:27.831Z,4.57
2019-02-28T18:17:18.082Z,4.80
2019-02-28T18:20:14.693Z,4.70
2019-02-28T18:22:56.982Z,4.67
2019-02-28T18:25:48.616Z,5.53
2019-02-28T18:28:22.531Z,4.97
2019-02-28T18:31:10.944Z,4.37
2019-02-28T18:33:55.196Z,6.70
2019-02-28T18:36:27.823Z,5.73
2019-02-28T18:39:01.812Z,6.27
2019-02-28T18:41:32.017Z,5.50
2019-02-28T18:44:03.753Z,4.93
2019-02-28T18:46:33.136Z,5.43
2019-02-28T18:49:02.876Z,4.40
2019-02-28T18:51:32.572Z,4.03
2019-02-28T18:54:02.272Z,4.70
2019-02-28T18:56:32.094Z,5.53
2019-02-28T18:59:01.791Z,5.93
2019-02-28T19:01:31.536Z,5.20
2019-02-28T19:04:01.274Z,5.00
2019-02-28T19:06:30.994Z,4.30
2019-02-28T19:09:00.734Z,6.10
2019-02-28T19:11:30.454Z,4.20
2019-02-28T19:14:00.187Z,4.60
2019-02-28T19:16:29.898Z,4.53
2019-02-28T19:18:59.592Z,4.53
2019-02-28T19:21:29.382Z,4.70
2019-02-28T19:23:59.089Z,4.30
2019-02-28T19:26:28.813Z,5.00
2019-02-28T19:28:58.536Z,4.17
2019-02-28T19:31:28.327Z,4.20
2019-02-28T19:33:58.069Z,4.57
2019-02-28T19:36:27.756Z,4.33
2019-02-28T19:38:57.493Z,4.03
2019-02-28T19:41:27.280Z,4.33
2019-02-28T19:43:57.013Z,3.83
2019-02-28T19:46:26.732Z,6.33
2019-02-28T19:48:56.449Z,4.47
2019-02-28T19:51:26.179Z,4.77
2019-02-28T19:53:55.957Z,5.93
2019-02-28T19:56:25.632Z,3.93
2019-02-28T19:58:55.411Z,5.47
2019-02-28T20:01:25.133Z,4.53
2019-02-28T20:03:54.867Z,5.47
2019-02-28T20:06:26.143Z,5.27
2019-02-28T20:08:55.945Z,5.23
2019-02-28T20:11:25.713Z,5.50
2019-02-28T20:13:55.479Z,3.60
2019-02-28T20:16:25.173Z,4.30
2019-02-28T20:18:54.920Z,4.67
2019-02-28T20:21:24.675Z,4.50
2019-02-28T20:23:54.466Z,5.10
2019-02-28T20:26:24.158Z,4.57
2019-02-28T20:28:53.884Z,4.40
2019-02-28T20:31:23.602Z,4.03
2019-02-28T20:33:53.451Z,4.73
2019-02-28T20:36:23.538Z,4.17
2019-02-28T20:38:53.309Z,4.87
2019-02-28T20:41:23.202Z,5.13
2019-02-28T20:43:52.944Z,4.50
2019-02-28T20:46:22.648Z,5.00
2019-02-28T20:48:52.342Z,4.33
2019-02-28T20:51:22.102Z,4.47
2019-02-28T20:53:51.779Z,4.57
2019-02-28T20:56:21.480Z,4.73
2019-02-28T20:58:51.220Z,4.63
2019-02-28T21:01:23.905Z,4.33
2019-02-28T21:03:53.657Z,4.63
2019-02-28T21:06:24.089Z,4.63
2019-02-28T21:08:53.855Z,4.60
2019-02-28T21:11:23.591Z,4.63
2019-02-28T21:13:53.298Z,4.10
2019-02-28T21:16:23.010Z,5.53
2019-02-28T21:18:52.746Z,4.63
2019-02-28T21:21:22.458Z,4.03
2019-02-28T21:23:52.184Z,4.63
2019-02-28T21:26:21.844Z,4.87
2019-02-28T21:28:51.484Z,4.57
2019-02-28T21:31:21.131Z,4.43
2019-02-28T21:33:50.839Z,4.93
2019-02-28T21:36:20.536Z,4.73
2019-02-28T21:38:50.175Z,3.90
2019-02-28T21:41:19.850Z,4.00
2019-02-28T21:43:49.493Z,3.73
2019-02-28T21:46:19.197Z,4.00
2019-02-28T21:48:48.837Z,4.10
2019-02-28T21:51:18.642Z,3.33
2019-02-28T21:53:48.272Z,3.37
2019-02-28T21:56:17.973Z,3.70
2019-02-28T21:58:47.666Z,3.47
2019-02-28T22:01:17.401Z,3.70
2019-02-28T22:03:47.032Z,4.10
2019-02-28T22:06:16.692Z,3.13
2019-02-28T22:08:46.455Z,3.43
2019-02-28T22:11:16.135Z,3.87
2019-02-28T22:13:45.762Z,3.60
2019-02-28T22:16:15.429Z,3.90
2019-02-28T22:18:45.115Z,4.07
2019-02-28T22:21:14.786Z,3.90
2019-02-28T22:23:44.433Z,3.00
2019-02-28T22:26:14.206Z,3.43
2019-02-28T22:28:43.836Z,3.37
2019-02-28T22:31:22.301Z,3.40
2019-02-28T22:33:53.621Z,3.40
2019-02-28T22:36:24.914Z,4.10
2019-02-28T22:38:54.546Z,2.93
2019-02-28T22:41:24.191Z,3.30
2019-02-28T22:43:53.887Z,3.10
2019-02-28T22:46:23.520Z,3.20
2019-02-28T22:48:53.159Z,3.20
2019-02-28T22:51:22.820Z,3.13
2019-02-28T22:53:52.455Z,3.77
2019-02-28T22:56:22.127Z,3.23
2019-02-28T22:58:51.808Z,3.30
2019-02-28T23:01:24.555Z,3.10
2019-02-28T23:03:54.199Z,2.80
2019-02-28T23:06:23.833Z,2.90
2019-02-28T23:08:53.484Z,3.40
2019-02-28T23:11:23.230Z,2.83
2019-02-28T23:13:52.843Z,3.00
2019-02-28T23:16:22.506Z,3.10
2019-02-28T23:18:52.148Z,3.90
2019-02-28T23:21:21.790Z,3.50
2019-02-28T23:23:51.448Z,3.23
2019-02-28T23:26:24.163Z,3.43
2019-02-28T23:28:59.532Z,2.87
2019-02-28T23:31:46.567Z,3.17
2019-02-28T23:34:27.867Z,2.83
2019-02-28T23:36:57.541Z,3.17
2019-02-28T23:39:27.182Z,3.20
2019-02-28T23:41:56.830Z,2.50
2019-02-28T23:44:26.478Z,2.63
2019-02-28T23:47:00.306Z,2.90
2019-02-28T23:49:29.945Z,3.03
2019-02-28T23:51:59.580Z,2.67
2019-02-28T23:54:29.198Z,2.40
2019-02-28T23:56:59.937Z,2.53
2019-02-28T23:59:29.575Z,2.93
